createdAt,value
2023-01-12T00:02:33.806Z,101076.47
2023-01-12T00:05:36.643Z,101077.34
2023-01-12T00:08:39.779Z,101072.09
2023-01-12T00:11:42.586Z,101069.50
2023-01-12T00:14:45.464Z,101065.97
2023-01-12T00:17:49.635Z,101071.28
2023-01-12T00:20:52.504Z,101073.06
2023-01-12T00:23:55.316Z,101064.22
2023-01-12T00:26:59.472Z,101070.50
2023-01-12T00:30:02.270Z,101073.94
2023-01-12T00:33:06.602Z,101080.97
2023-01-12T00:36:13.132Z,101084.50
2023-01-12T00:39:17.071Z,101074.75
2023-01-12T00:42:37.654Z,101080.06
2023-01-12T00:45:40.558Z,101073.88
2023-01-12T00:48:44.973Z,101056.19
2023-01-12T00:51:47.851Z,101044.78
2023-01-12T00:54:50.698Z,101046.53
2023-01-12T00:57:53.647Z,101048.34
2023-01-12T01:00:56.678Z,101046.59
2023-01-12T01:04:01.011Z,101038.59
2023-01-12T01:07:04.116Z,101043.09
2023-01-12T01:10:07.853Z,101049.31
2023-01-12T01:13:10.691Z,101064.38
2023-01-12T01:16:15.623Z,101056.31
2023-01-12T01:19:19.918Z,101052.78
2023-01-12T01:22:22.740Z,101052.72
2023-01-12T01:25:25.519Z,101048.25
2023-01-12T01:28:28.329Z,101040.28
2023-01-12T01:31:31.178Z,101040.34
2023-01-12T01:34:35.718Z,101038.56
2023-01-12T01:37:38.621Z,101029.78
2023-01-12T01:40:44.052Z,101020.94
2023-01-12T01:43:53.234Z,101028.91
2023-01-12T01:46:59.486Z,101017.41
2023-01-12T01:50:07.253Z,101013.03
2023-01-12T01:53:14.242Z,101021.00
2023-01-12T01:56:21.389Z,101011.28
2023-01-12T01:59:29.578Z,101012.06
2023-01-12T02:02:32.509Z,101000.53
2023-01-12T02:05:38.918Z,101003.97
2023-01-12T02:08:47.683Z,100993.34
2023-01-12T02:12:08.643Z,100988.06
2023-01-12T02:15:25.796Z,100988.00
2023-01-12T02:18:35.239Z,101000.53
2023-01-12T02:22:19.220Z,101006.69
2023-01-12T02:25:57.631Z,101014.75
2023-01-12T02:29:38.263Z,101002.38
2023-01-12T02:32:50.772Z,101003.22
2023-01-12T02:36:00.077Z,100990.00
2023-01-12T02:39:12.894Z,100990.94
2023-01-12T02:42:48.552Z,100977.56
2023-01-12T02:45:57.385Z,100991.75
2023-01-12T02:49:06.816Z,100979.25
2023-01-12T02:52:13.376Z,100973.91
2023-01-12T02:55:19.224Z,100971.31
2023-01-12T02:58:25.752Z,100972.19
2023-01-12T03:01:30.418Z,100971.31
2023-01-12T03:04:35.098Z,100973.13
2023-01-12T03:07:48.158Z,100971.31
2023-01-12T03:11:04.775Z,100970.47
2023-01-12T03:14:10.035Z,100969.59
2023-01-12T03:17:18.254Z,100971.38
2023-01-12T03:20:25.884Z,100961.69
2023-01-12T03:23:34.974Z,100965.25
2023-01-12T03:26:41.312Z,100966.06
2023-01-12T03:29:47.330Z,100955.41
2023-01-12T03:32:50.657Z,100956.22
2023-01-12T03:36:14.919Z,100958.00
2023-01-12T03:39:26.633Z,100957.09
2023-01-12T03:42:37.014Z,100955.34
2023-01-12T03:45:43.879Z,100957.97
2023-01-12T03:48:51.018Z,100947.31
2023-01-12T03:51:58.981Z,100938.38
2023-01-12T03:55:04.309Z,100930.34
2023-01-12T03:58:07.742Z,100921.50
2023-01-12T04:01:10.677Z,100929.50
2023-01-12T04:04:13.593Z,100918.84
2023-01-12T04:07:17.762Z,100919.69
2023-01-12T04:10:20.672Z,100927.66
2023-01-12T04:13:23.476Z,100915.25
2023-01-12T04:16:26.415Z,100911.66
2023-01-12T04:19:29.289Z,100915.25
2023-01-12T04:22:45.482Z,100909.91
2023-01-12T04:25:48.312Z,100910.78
2023-01-12T04:28:51.176Z,100911.72
2023-01-12T04:31:54.188Z,100908.22
2023-01-12T04:34:57.037Z,100902.09
2023-01-12T04:38:06.889Z,100906.53
2023-01-12T04:41:10.060Z,100889.72
2023-01-12T04:44:12.843Z,100898.56
2023-01-12T04:47:15.726Z,100891.50
2023-01-12T04:50:18.740Z,100888.00
2023-01-12T04:53:24.578Z,100885.34
2023-01-12T04:56:27.556Z,100890.59
2023-01-12T04:59:30.526Z,100883.47
2023-01-12T05:02:33.316Z,100891.47
2023-01-12T05:05:37.307Z,100889.63
2023-01-12T05:09:10.990Z,100878.16
2023-01-12T05:12:13.883Z,100881.72
2023-01-12T05:15:16.963Z,100884.31
2023-01-12T05:18:20.602Z,100878.16
2023-01-12T05:21:24.514Z,100873.75
2023-01-12T05:24:28.710Z,100887.06
2023-01-12T05:27:31.546Z,100870.22
2023-01-12T05:30:34.448Z,100872.03
2023-01-12T05:33:37.890Z,100868.50
2023-01-12T05:36:40.898Z,100859.66
2023-01-12T05:39:45.083Z,100852.56
2023-01-12T05:43:08.891Z,100860.44
2023-01-12T05:46:11.918Z,100863.03
2023-01-12T05:49:14.778Z,100853.34
2023-01-12T05:52:17.720Z,100852.47
2023-01-12T05:55:21.919Z,100847.06
2023-01-12T05:58:25.112Z,100853.34
2023-01-12T06:01:29.375Z,100850.69
2023-01-12T06:04:32.271Z,100842.78
2023-01-12T06:07:35.114Z,100844.50
2023-01-12T06:10:40.686Z,100849.81
2023-01-12T06:13:58.018Z,100848.09
2023-01-12T06:17:00.867Z,100847.16
2023-01-12T06:20:03.772Z,100844.50
2023-01-12T06:23:06.631Z,100843.56
2023-01-12T06:26:11.507Z,100842.63
2023-01-12T06:29:14.307Z,100841.72
2023-01-12T06:32:17.219Z,100832.84
2023-01-12T06:35:20.205Z,100837.31
2023-01-12T06:38:25.763Z,100838.19
2023-01-12T06:41:47.213Z,100837.31
2023-01-12T06:44:50.059Z,100833.78
2023-01-12T06:47:52.840Z,100826.66
2023-01-12T06:50:58.332Z,100824.94
2023-01-12T06:54:01.427Z,100826.66
2023-01-12T06:57:05.759Z,100826.81
2023-01-12T07:00:09.968Z,100832.97
2023-01-12T07:03:17.672Z,100819.63
2023-01-12T07:06:20.727Z,100825.00
2023-01-12T07:09:23.601Z,100819.63
2023-01-12T07:12:27.971Z,100826.66
2023-01-12T07:15:30.789Z,100829.31
2023-01-12T07:18:33.926Z,100822.28
2023-01-12T07:21:36.790Z,100814.31
2023-01-12T07:24:39.579Z,100822.28
2023-01-12T07:27:50.555Z,100812.56
2023-01-12T07:30:53.415Z,100801.94
2023-01-12T07:33:56.390Z,100809.91
2023-01-12T07:36:59.230Z,100807.25
2023-01-12T07:40:02.138Z,100809.03
2023-01-12T07:43:08.806Z,100802.88
2023-01-12T07:46:12.401Z,100802.88
2023-01-12T07:49:15.834Z,100799.28
2023-01-12T07:52:18.709Z,100798.34
2023-01-12T07:55:22.507Z,100786.84
2023-01-12T07:58:27.618Z,100786.84
2023-01-12T08:01:32.502Z,100783.22
2023-01-12T08:04:35.497Z,100776.19
2023-01-12T08:07:38.371Z,100769.09
2023-01-12T08:10:43.447Z,100767.28
2023-01-12T08:13:47.666Z,100774.41
2023-01-12T08:16:51.420Z,100761.94
2023-01-12T08:20:02.359Z,100768.16
2023-01-12T08:23:12.127Z,100764.69
2023-01-12T08:26:19.330Z,100757.66
2023-01-12T08:29:30.683Z,100747.81
2023-01-12T08:32:34.062Z,100750.47
2023-01-12T08:35:37.436Z,100745.16
2023-01-12T08:38:40.462Z,100732.78
2023-01-12T08:41:45.014Z,100731.84
2023-01-12T08:44:49.226Z,100728.25
2023-01-12T08:47:52.171Z,100725.59
2023-01-12T08:50:55.134Z,100729.13
2023-01-12T08:53:58.049Z,100712.28
2023-01-12T08:57:00.916Z,100711.38
2023-01-12T09:00:06.556Z,100708.69
2023-01-12T09:03:09.547Z,100712.19
2023-01-12T09:06:14.699Z,100703.31
2023-01-12T09:09:20.057Z,100697.19
2023-01-12T09:12:24.519Z,100690.09
2023-01-12T09:15:28.818Z,100692.75
2023-01-12T09:18:31.872Z,100690.09
2023-01-12T09:21:38.396Z,100681.16
2023-01-12T09:24:41.925Z,100682.03
2023-01-12T09:27:44.837Z,100675.84
2023-01-12T09:30:49.014Z,100682.09
2023-01-12T09:33:52.747Z,100668.81
2023-01-12T09:36:56.647Z,100674.13
2023-01-12T09:40:00.536Z,100668.81
2023-01-12T09:43:21.277Z,100666.97
2023-01-12T09:46:47.288Z,100671.47
2023-01-12T09:50:08.011Z,100662.63
2023-01-12T09:53:17.066Z,100658.22
2023-01-12T09:56:25.770Z,100651.09
2023-01-12T09:59:53.526Z,100649.22
2023-01-12T10:03:08.676Z,100633.28
2023-01-12T10:06:15.983Z,100632.41
2023-01-12T10:09:21.331Z,100633.28
2023-01-12T10:12:29.197Z,100624.50
2023-01-12T10:15:41.133Z,100620.13
2023-01-12T10:18:50.395Z,100614.81
2023-01-12T10:21:55.334Z,100614.81
2023-01-12T10:24:58.294Z,100608.53
2023-01-12T10:28:06.783Z,100605.88
2023-01-12T10:31:16.896Z,100604.97
2023-01-12T10:34:21.186Z,100583.69
2023-01-12T10:37:24.087Z,100591.56
2023-01-12T10:40:31.089Z,100576.41
2023-01-12T10:43:34.867Z,100574.53
2023-01-12T10:46:37.711Z,100578.06
2023-01-12T10:49:41.886Z,100572.75
2023-01-12T10:52:44.801Z,100556.00
2023-01-12T10:55:48.419Z,100560.53
2023-01-12T10:58:57.342Z,100556.13
2023-01-12T11:02:16.015Z,100541.03
2023-01-12T11:05:34.122Z,100544.56
2023-01-12T11:08:36.978Z,100535.63
2023-01-12T11:11:39.922Z,100539.16
2023-01-12T11:14:43.985Z,100534.78
2023-01-12T11:18:00.219Z,100517.88
2023-01-12T11:21:08.643Z,100522.28
2023-01-12T11:24:16.204Z,100510.78
2023-01-12T11:27:27.091Z,100508.03
2023-01-12T11:30:36.992Z,100509.75
2023-01-12T11:33:43.956Z,100508.88
2023-01-12T11:36:52.095Z,100503.56
2023-01-12T11:40:04.185Z,100496.50
2023-01-12T11:43:37.227Z,100485.03
2023-01-12T11:46:44.482Z,100476.19
2023-01-12T11:49:54.843Z,100484.16
2023-01-12T11:52:59.265Z,100473.53
2023-01-12T11:56:15.602Z,100469.06
2023-01-12T11:59:26.290Z,100461.94
2023-01-12T12:02:37.507Z,100462.88
2023-01-12T12:05:49.927Z,100461.94
2023-01-12T12:09:09.103Z,100462.72
2023-01-12T12:12:21.492Z,100468.81
2023-01-12T12:15:34.043Z,100447.47
2023-01-12T12:18:51.744Z,100447.53
2023-01-12T12:22:03.328Z,100460.69
2023-01-12T12:25:20.288Z,100449.13
2023-01-12T12:28:49.426Z,100461.00
2023-01-12T12:32:03.649Z,100446.06
2023-01-12T12:35:26.671Z,100448.81
2023-01-12T12:38:45.319Z,100448.81
2023-01-12T12:42:18.964Z,100455.06
2023-01-12T12:45:33.159Z,100448.97
2023-01-12T12:48:45.899Z,100440.97
2023-01-12T12:51:50.810Z,100436.44
2023-01-12T12:54:55.417Z,100445.06
2023-01-12T12:58:05.709Z,100450.03
2023-01-12T13:01:42.734Z,100439.25
2023-01-12T13:05:05.219Z,100454.25
2023-01-12T13:08:19.422Z,100458.72
2023-01-12T13:11:50.330Z,100435.63
2023-01-12T13:15:27.154Z,100430.50
2023-01-12T13:18:43.701Z,100437.59
2023-01-12T13:21:58.531Z,100426.09
2023-01-12T13:25:02.915Z,100422.75
2023-01-12T13:28:19.369Z,100423.53
2023-01-12T13:31:33.715Z,100417.44
2023-01-12T13:34:46.226Z,100413.91
2023-01-12T13:37:53.019Z,100431.50
2023-01-12T13:41:04.000Z,100426.97
2023-01-12T13:44:11.040Z,100429.72
2023-01-12T13:47:25.659Z,100427.84
2023-01-12T13:50:29.617Z,100414.53
2023-01-12T13:53:33.482Z,100416.31
2023-01-12T13:56:36.319Z,100419.00
2023-01-12T13:59:39.163Z,100425.19
2023-01-12T14:02:43.505Z,100425.19
2023-01-12T14:06:00.270Z,100433.06
2023-01-12T14:09:17.745Z,100435.63
2023-01-12T14:12:46.971Z,100433.84
2023-01-12T14:16:07.234Z,100444.50
2023-01-12T14:19:29.500Z,100427.56
2023-01-12T14:22:32.336Z,100433.75
2023-01-12T14:25:35.298Z,100443.47
2023-01-12T14:28:39.411Z,100446.13
2023-01-12T14:31:45.370Z,100446.13
2023-01-12T14:34:52.356Z,100444.41
2023-01-12T14:37:58.972Z,100447.84
2023-01-12T14:41:05.309Z,100447.84
2023-01-12T14:44:33.255Z,100445.19
2023-01-12T14:47:36.504Z,100439.84
2023-01-12T14:50:40.745Z,100430.16
2023-01-12T14:53:45.872Z,100435.50
2023-01-12T14:56:56.863Z,100438.06
2023-01-12T14:59:59.992Z,100434.53
2023-01-12T15:03:07.717Z,100442.47
2023-01-12T15:06:15.829Z,100451.28
2023-01-12T15:09:28.229Z,100449.38
2023-01-12T15:12:47.186Z,100438.75
2023-01-12T15:16:18.115Z,100447.50
2023-01-12T15:19:38.622Z,100450.16
2023-01-12T15:23:00.635Z,100448.38
2023-01-12T15:26:03.493Z,100431.53
2023-01-12T15:29:06.343Z,100449.16
2023-01-12T15:32:19.104Z,100452.69
2023-01-12T15:35:24.591Z,100452.69
2023-01-12T15:38:29.114Z,100437.66
2023-01-12T15:41:50.871Z,100460.66
2023-01-12T15:44:54.882Z,100457.13
2023-01-12T15:47:58.162Z,100455.34
2023-01-12T15:51:01.159Z,100447.34
2023-01-12T15:54:05.759Z,100460.56
2023-01-12T15:57:11.419Z,100456.28
2023-01-12T16:00:16.864Z,100450.88
2023-01-12T16:03:49.007Z,100446.59
2023-01-12T16:06:42.606Z,100451.81
2023-01-12T16:09:47.755Z,100448.22
2023-01-12T16:12:50.687Z,100452.81
2023-01-12T16:15:53.460Z,100456.28
2023-01-12T16:18:58.600Z,100448.22
2023-01-12T16:22:01.427Z,100460.56
2023-01-12T16:25:06.491Z,100452.53
2023-01-12T16:28:09.274Z,100462.22
2023-01-12T16:31:13.910Z,100462.22
2023-01-12T16:34:18.300Z,100455.97
2023-01-12T16:37:23.048Z,100465.56
2023-01-12T16:40:27.364Z,100465.56
2023-01-12T16:43:30.751Z,100471.94
2023-01-12T16:46:33.638Z,100463.00
2023-01-12T16:49:36.555Z,100454.09
2023-01-12T16:52:39.435Z,100471.75
2023-01-12T16:55:43.719Z,100463.00
2023-01-12T16:58:48.405Z,100468.41
2023-01-12T17:01:51.922Z,100470.97
2023-01-12T17:04:55.009Z,100472.88
2023-01-12T17:07:58.344Z,100465.91
2023-01-12T17:11:07.153Z,100469.44
2023-01-12T17:14:24.205Z,100465.03
2023-01-12T17:17:27.341Z,100464.19
2023-01-12T17:20:30.410Z,100461.44
2023-01-12T17:23:34.471Z,100464.09
2023-01-12T17:26:40.332Z,100459.72
2023-01-12T17:29:43.252Z,100455.34
2023-01-12T17:32:46.096Z,100453.59
2023-01-12T17:35:48.980Z,100456.28
2023-01-12T17:38:52.224Z,100450.94
2023-01-12T17:42:14.045Z,100457.22
2023-01-12T17:45:16.839Z,100459.88
2023-01-12T17:48:19.810Z,100459.88
2023-01-12T17:51:22.771Z,100459.88
2023-01-12T17:54:25.878Z,100464.25
2023-01-12T17:57:31.493Z,100463.31
2023-01-12T18:00:34.480Z,100454.47
2023-01-12T18:03:37.349Z,100455.44
2023-01-12T18:06:40.860Z,100454.56
2023-01-12T18:09:43.668Z,100462.56
2023-01-12T18:12:47.844Z,100467.00
2023-01-12T18:15:51.016Z,100452.00
2023-01-12T18:18:54.350Z,100457.31
2023-01-12T18:21:57.315Z,100456.44
2023-01-12T18:25:00.174Z,100454.72
2023-01-12T18:28:05.140Z,100451.28
2023-01-12T18:31:11.000Z,100454.03
2023-01-12T18:34:14.355Z,100447.84
2023-01-12T18:37:17.827Z,100445.19
2023-01-12T18:40:20.836Z,100442.50
2023-01-12T18:43:24.107Z,100438.94
2023-01-12T18:46:50.666Z,100438.06
2023-01-12T18:49:57.572Z,100438.94
2023-01-12T18:53:14.352Z,100441.66
2023-01-12T18:56:17.577Z,100437.28
2023-01-12T18:59:22.371Z,100441.75
2023-01-12T19:02:25.378Z,100429.31
2023-01-12T19:05:35.169Z,100428.44
2023-01-12T19:09:00.699Z,100427.50
2023-01-12T19:12:04.202Z,100426.56
2023-01-12T19:15:28.059Z,100429.38
2023-01-12T19:18:30.878Z,100427.56
2023-01-12T19:21:51.001Z,100425.69
2023-01-12T19:25:11.288Z,100421.22
2023-01-12T19:28:35.655Z,100423.13
2023-01-12T19:31:40.114Z,100419.53
2023-01-12T19:34:43.174Z,100417.78
2023-01-12T19:37:47.694Z,100415.13
2023-01-12T19:40:53.636Z,100415.03
2023-01-12T19:43:55.599Z,100422.19
2023-01-12T19:47:00.321Z,100402.59
2023-01-12T19:50:03.108Z,100409.66
2023-01-12T19:53:07.608Z,100401.69
2023-01-12T19:56:11.325Z,100405.13
2023-01-12T19:59:14.618Z,100399.03
2023-01-12T20:02:19.259Z,100399.88
2023-01-12T20:05:25.134Z,100407.00
2023-01-12T20:08:28.084Z,100409.56
2023-01-12T20:11:30.994Z,100408.66
2023-01-12T20:14:33.813Z,100404.16
2023-01-12T20:17:38.283Z,100403.38
2023-01-12T20:20:41.643Z,100390.84
2023-01-12T20:23:44.447Z,100400.66
2023-01-12T20:26:47.484Z,100404.16
2023-01-12T20:29:50.603Z,100403.31
2023-01-12T20:32:55.933Z,100395.25
2023-01-12T20:36:00.895Z,100401.50
2023-01-12T20:39:03.939Z,100396.19
2023-01-12T20:42:07.025Z,100395.34
2023-01-12T20:45:11.593Z,100398.84
2023-01-12T20:48:15.848Z,100390.84
2023-01-12T20:51:18.773Z,100390.84
2023-01-12T20:54:21.609Z,100383.84
2023-01-12T20:57:24.640Z,100381.25
2023-01-12T21:00:29.151Z,100385.63
2023-01-12T21:03:33.413Z,100387.41
2023-01-12T21:06:36.323Z,100383.91
2023-01-12T21:09:39.229Z,100391.03
2023-01-12T21:12:42.043Z,100391.03
2023-01-12T21:15:45.115Z,100390.06
2023-01-12T21:18:49.592Z,100384.59
2023-01-12T21:21:52.647Z,100383.84
2023-01-12T21:24:57.637Z,100383.75
2023-01-12T21:28:00.479Z,100393.44
2023-01-12T21:31:03.801Z,100378.31
2023-01-12T21:34:08.138Z,100385.38
2023-01-12T21:37:11.212Z,100374.75
2023-01-12T21:40:14.362Z,100370.28
2023-01-12T21:43:18.204Z,100361.44
2023-01-12T21:46:22.348Z,100367.69
2023-01-12T21:49:26.689Z,100367.69
2023-01-12T21:52:33.001Z,100364.09
2023-01-12T21:55:36.202Z,100354.47
2023-01-12T21:58:39.529Z,100360.66
2023-01-12T22:01:42.539Z,100360.66
2023-01-12T22:04:47.099Z,100355.34
2023-01-12T22:07:50.101Z,100352.78
2023-01-12T22:10:52.966Z,100346.50
2023-01-12T22:13:55.946Z,100354.47
2023-01-12T22:16:58.883Z,100350.09
2023-01-12T22:20:03.186Z,100341.25
2023-01-12T22:23:06.033Z,100342.97
2023-01-12T22:26:10.552Z,100342.03
2023-01-12T22:29:13.374Z,100339.38
2023-01-12T22:32:16.506Z,100333.19
2023-01-12T22:35:20.901Z,100341.16
2023-01-12T22:38:23.908Z,100345.63
2023-01-12T22:41:27.222Z,100325.28
2023-01-12T22:44:30.078Z,100328.88
2023-01-12T22:47:47.235Z,100318.25
2023-01-12T22:50:54.577Z,100317.47
2023-01-12T22:53:57.825Z,100323.66
2023-01-12T22:57:01.627Z,100306.81
2023-01-12T23:00:05.465Z,100319.19
2023-01-12T23:03:09.579Z,100305.91
2023-01-12T23:06:15.884Z,100307.59
2023-01-12T23:09:18.668Z,100303.22
2023-01-12T23:12:21.632Z,100301.44
2023-01-12T23:15:24.420Z,100286.50
2023-01-12T23:18:29.346Z,100292.66
2023-01-12T23:21:33.560Z,100287.34
2023-01-12T23:24:38.130Z,100286.50
2023-01-12T23:27:40.922Z,100282.09
2023-01-12T23:30:44.058Z,100276.78
2023-01-12T23:33:47.079Z,100276.88
2023-01-12T23:36:51.508Z,100272.41
2023-01-12T23:39:54.332Z,100269.75
2023-01-12T23:42:57.136Z,100261.69
2023-01-12T23:46:00.676Z,100275.84
2023-01-12T23:49:03.851Z,100261.59
2023-01-12T23:52:08.040Z,100263.38
2023-01-12T23:55:10.951Z,100252.84
2023-01-12T23:58:13.784Z,100265.28
